sensor_id;sensor_type;location;lat;lon;timestamp;temperature;humidity
49385;DHT22;36795;45.028;38.968;2022-10-16T00:01:13;13.30;60.00
49385;DHT22;36795;45.028;38.968;2022-10-16T00:04:01;13.30;60.10
49385;DHT22;36795;45.028;38.968;2022-10-16T00:06:48;13.30;60.00
49385;DHT22;36795;45.028;38.968;2022-10-16T00:09:34;13.30;59.90
49385;DHT22;36795;45.028;38.968;2022-10-16T00:12:20;13.30;60.00
49385;DHT22;36795;45.028;38.968;2022-10-16T00:15:07;13.30;60.10
49385;DHT22;36795;45.028;38.968;2022-10-16T00:17:52;13.20;60.20
49385;DHT22;36795;45.028;38.968;2022-10-16T00:20:39;13.20;60.30
49385;DHT22;36795;45.028;38.968;2022-10-16T00:23:43;13.20;60.40
49385;DHT22;36795;45.028;38.968;2022-10-16T00:26:31;13.20;60.30
49385;DHT22;36795;45.028;38.968;2022-10-16T00:29:16;13.10;60.50
49385;DHT22;36795;45.028;38.968;2022-10-16T00:32:03;13.10;60.50
49385;DHT22;36795;45.028;38.968;2022-10-16T00:34:49;13.10;60.50
49385;DHT22;36795;45.028;38.968;2022-10-16T00:37:35;13.20;60.70
49385;DHT22;36795;45.028;38.968;2022-10-16T00:40:21;13.20;60.70
49385;DHT22;36795;45.028;38.968;2022-10-16T00:43:36;13.20;60.80
49385;DHT22;36795;45.028;38.968;2022-10-16T00:46:38;13.10;60.70
49385;DHT22;36795;45.028;38.968;2022-10-16T00:49:25;13.10;60.90
49385;DHT22;36795;45.028;38.968;2022-10-16T00:52:12;13.10;61.00
49385;DHT22;36795;45.028;38.968;2022-10-16T00:55:01;13.10;61.00
49385;DHT22;36795;45.028;38.968;2022-10-16T00:57:48;13.10;61.10
49385;DHT22;36795;45.028;38.968;2022-10-16T01:00:35;13.00;61.80
49385;DHT22;36795;45.028;38.968;2022-10-16T01:03:28;13.00;61.30
49385;DHT22;36795;45.028;38.968;2022-10-16T01:06:22;13.00;61.30
49385;DHT22;36795;45.028;38.968;2022-10-16T01:09:20;13.00;61.20
49385;DHT22;36795;45.028;38.968;2022-10-16T01:12:47;13.00;61.20
49385;DHT22;36795;45.028;38.968;2022-10-16T01:18:35;13.00;61.40
49385;DHT22;36795;45.028;38.968;2022-10-16T01:21:27;13.00;61.30
49385;DHT22;36795;45.028;38.968;2022-10-16T01:27:20;12.90;61.30
49385;DHT22;36795;45.028;38.968;2022-10-16T01:30:25;12.80;61.50
49385;DHT22;36795;45.028;38.968;2022-10-16T01:33:21;12.80;61.50
49385;DHT22;36795;45.028;38.968;2022-10-16T01:36:13;12.80;61.40
49385;DHT22;36795;45.028;38.968;2022-10-16T01:39:02;12.80;61.40
49385;DHT22;36795;45.028;38.968;2022-10-16T01:41:54;12.80;61.30
49385;DHT22;36795;45.028;38.968;2022-10-16T01:44:41;12.70;61.40
49385;DHT22;36795;45.028;38.968;2022-10-16T01:47:30;12.60;61.40
49385;DHT22;36795;45.028;38.968;2022-10-16T01:50:18;12.60;61.50
49385;DHT22;36795;45.028;38.968;2022-10-16T01:53:09;12.60;61.50
49385;DHT22;36795;45.028;38.968;2022-10-16T01:55:58;12.60;61.40
49385;DHT22;36795;45.028;38.968;2022-10-16T01:58:49;12.60;61.50
49385;DHT22;36795;45.028;38.968;2022-10-16T02:01:38;12.50;61.60
49385;DHT22;36795;45.028;38.968;2022-10-16T02:04:44;12.50;61.70
49385;DHT22;36795;45.028;38.968;2022-10-16T02:07:31;12.50;61.60
49385;DHT22;36795;45.028;38.968;2022-10-16T02:10:17;12.50;61.60
49385;DHT22;36795;45.028;38.968;2022-10-16T02:13:14;12.50;61.60
49385;DHT22;36795;45.028;38.968;2022-10-16T02:16:02;12.50;61.70
49385;DHT22;36795;45.028;38.968;2022-10-16T02:18:47;12.50;61.80
49385;DHT22;36795;45.028;38.968;2022-10-16T02:21:57;12.40;61.90
49385;DHT22;36795;45.028;38.968;2022-10-16T02:24:57;12.40;62.00
49385;DHT22;36795;45.028;38.968;2022-10-16T02:28:07;12.40;62.30
49385;DHT22;36795;45.028;38.968;2022-10-16T02:31:01;12.40;62.40
49385;DHT22;36795;45.028;38.968;2022-10-16T02:33:49;12.30;62.80
49385;DHT22;36795;45.028;38.968;2022-10-16T02:36:36;12.30;62.80
49385;DHT22;36795;45.028;38.968;2022-10-16T02:39:24;12.20;63.00
49385;DHT22;36795;45.028;38.968;2022-10-16T02:42:15;12.30;63.00
49385;DHT22;36795;45.028;38.968;2022-10-16T02:45:01;12.30;63.00
49385;DHT22;36795;45.028;38.968;2022-10-16T02:47:48;12.30;62.90
49385;DHT22;36795;45.028;38.968;2022-10-16T02:50:34;12.40;63.10
49385;DHT22;36795;45.028;38.968;2022-10-16T02:53:20;12.30;63.30
49385;DHT22;36795;45.028;38.968;2022-10-16T02:56:07;12.30;63.40
49385;DHT22;36795;45.028;38.968;2022-10-16T02:58:53;12.30;63.50
49385;DHT22;36795;45.028;38.968;2022-10-16T03:01:39;12.30;63.70
49385;DHT22;36795;45.028;38.968;2022-10-16T03:04:25;12.30;63.80
49385;DHT22;36795;45.028;38.968;2022-10-16T03:07:11;12.30;63.90
49385;DHT22;36795;45.028;38.968;2022-10-16T03:09:57;12.30;63.80
49385;DHT22;36795;45.028;38.968;2022-10-16T03:12:46;12.30;64.00
49385;DHT22;36795;45.028;38.968;2022-10-16T03:15:31;12.20;64.40
49385;DHT22;36795;45.028;38.968;2022-10-16T03:18:17;12.20;64.70
49385;DHT22;36795;45.028;38.968;2022-10-16T03:21:03;12.20;64.80
49385;DHT22;36795;45.028;38.968;2022-10-16T03:23:49;12.20;64.90
49385;DHT22;36795;45.028;38.968;2022-10-16T03:26:35;12.20;65.10
49385;DHT22;36795;45.028;38.968;2022-10-16T03:29:21;12.20;65.40
49385;DHT22;36795;45.028;38.968;2022-10-16T03:32:07;12.10;65.70
49385;DHT22;36795;45.028;38.968;2022-10-16T03:34:54;12.10;66.00
49385;DHT22;36795;45.028;38.968;2022-10-16T03:37:41;12.10;66.20
49385;DHT22;36795;45.028;38.968;2022-10-16T03:40:28;12.20;66.30
49385;DHT22;36795;45.028;38.968;2022-10-16T03:43:14;12.10;66.60
49385;DHT22;36795;45.028;38.968;2022-10-16T03:46:00;12.10;66.60
49385;DHT22;36795;45.028;38.968;2022-10-16T03:48:46;12.20;66.70
49385;DHT22;36795;45.028;38.968;2022-10-16T03:51:33;12.20;66.70
49385;DHT22;36795;45.028;38.968;2022-10-16T03:54:19;12.20;66.70
49385;DHT22;36795;45.028;38.968;2022-10-16T03:57:05;12.20;66.90
49385;DHT22;36795;45.028;38.968;2022-10-16T03:59:50;12.20;66.90
49385;DHT22;36795;45.028;38.968;2022-10-16T04:02:37;12.30;66.90
49385;DHT22;36795;45.028;38.968;2022-10-16T04:05:24;12.30;66.90
49385;DHT22;36795;45.028;38.968;2022-10-16T04:08:09;12.40;67.00
49385;DHT22;36795;45.028;38.968;2022-10-16T04:10:56;12.40;67.10
49385;DHT22;36795;45.028;38.968;2022-10-16T04:13:42;12.50;66.90
49385;DHT22;36795;45.028;38.968;2022-10-16T04:16:29;12.50;66.80
49385;DHT22;36795;45.028;38.968;2022-10-16T04:19:15;12.60;66.90
49385;DHT22;36795;45.028;38.968;2022-10-16T04:22:02;12.60;66.90
49385;DHT22;36795;45.028;38.968;2022-10-16T04:24:47;12.60;67.10
49385;DHT22;36795;45.028;38.968;2022-10-16T04:27:34;12.60;67.10
49385;DHT22;36795;45.028;38.968;2022-10-16T04:30:20;12.70;67.20
49385;DHT22;36795;45.028;38.968;2022-10-16T04:33:09;12.80;67.20
49385;DHT22;36795;45.028;38.968;2022-10-16T04:36:02;12.80;67.20
49385;DHT22;36795;45.028;38.968;2022-10-16T04:38:49;13.00;67.10
49385;DHT22;36795;45.028;38.968;2022-10-16T04:41:35;13.20;66.70
49385;DHT22;36795;45.028;38.968;2022-10-16T04:44:21;13.30;66.20
49385;DHT22;36795;45.028;38.968;2022-10-16T04:47:07;13.40;66.10
49385;DHT22;36795;45.028;38.968;2022-10-16T04:49:53;13.50;66.00
49385;DHT22;36795;45.028;38.968;2022-10-16T04:52:39;13.60;65.70
49385;DHT22;36795;45.028;38.968;2022-10-16T04:55:25;13.70;66.10
49385;DHT22;36795;45.028;38.968;2022-10-16T04:58:11;13.60;65.70
49385;DHT22;36795;45.028;38.968;2022-10-16T05:00:58;13.60;65.70
49385;DHT22;36795;45.028;38.968;2022-10-16T05:03:44;13.60;65.70
49385;DHT22;36795;45.028;38.968;2022-10-16T05:06:30;13.50;65.80
49385;DHT22;36795;45.028;38.968;2022-10-16T05:09:15;13.60;65.90
49385;DHT22;36795;45.028;38.968;2022-10-16T05:12:02;13.60;66.20
49385;DHT22;36795;45.028;38.968;2022-10-16T05:14:49;13.70;65.60
49385;DHT22;36795;45.028;38.968;2022-10-16T05:17:35;13.90;65.40
49385;DHT22;36795;45.028;38.968;2022-10-16T05:20:21;14.30;64.70
49385;DHT22;36795;45.028;38.968;2022-10-16T05:23:08;14.60;64.00
49385;DHT22;36795;45.028;38.968;2022-10-16T05:25:57;14.70;63.60
49385;DHT22;36795;45.028;38.968;2022-10-16T05:28:44;14.60;63.70
49385;DHT22;36795;45.028;38.968;2022-10-16T05:31:29;14.50;63.90
49385;DHT22;36795;45.028;38.968;2022-10-16T05:34:16;14.50;64.30
49385;DHT22;36795;45.028;38.968;2022-10-16T05:37:02;14.50;64.50
49385;DHT22;36795;45.028;38.968;2022-10-16T05:39:49;14.50;64.80
49385;DHT22;36795;45.028;38.968;2022-10-16T05:42:35;14.50;64.70
49385;DHT22;36795;45.028;38.968;2022-10-16T05:45:22;14.70;64.50
49385;DHT22;36795;45.028;38.968;2022-10-16T05:48:07;14.70;64.50
49385;DHT22;36795;45.028;38.968;2022-10-16T05:51:04;14.80;64.40
49385;DHT22;36795;45.028;38.968;2022-10-16T05:53:52;14.90;64.40
49385;DHT22;36795;45.028;38.968;2022-10-16T05:56:38;14.90;64.50
49385;DHT22;36795;45.028;38.968;2022-10-16T05:59:24;15.00;64.50
49385;DHT22;36795;45.028;38.968;2022-10-16T06:02:13;15.30;64.00
49385;DHT22;36795;45.028;38.968;2022-10-16T06:04:59;15.50;63.40
49385;DHT22;36795;45.028;38.968;2022-10-16T06:07:46;15.60;63.30
49385;DHT22;36795;45.028;38.968;2022-10-16T06:10:32;15.50;63.50
49385;DHT22;36795;45.028;38.968;2022-10-16T06:13:17;15.60;63.50
49385;DHT22;36795;45.028;38.968;2022-10-16T06:16:04;15.70;63.60
49385;DHT22;36795;45.028;38.968;2022-10-16T06:18:54;15.70;63.50
49385;DHT22;36795;45.028;38.968;2022-10-16T06:21:41;15.80;63.60
49385;DHT22;36795;45.028;38.968;2022-10-16T06:24:27;15.80;63.60
49385;DHT22;36795;45.028;38.968;2022-10-16T06:27:14;16.00;63.40
49385;DHT22;36795;45.028;38.968;2022-10-16T06:29:59;16.10;63.30
49385;DHT22;36795;45.028;38.968;2022-10-16T06:32:45;16.20;63.40
49385;DHT22;36795;45.028;38.968;2022-10-16T06:35:31;16.30;63.50
49385;DHT22;36795;45.028;38.968;2022-10-16T06:38:18;16.70;63.00
49385;DHT22;36795;45.028;38.968;2022-10-16T06:41:04;17.40;61.60
49385;DHT22;36795;45.028;38.968;2022-10-16T06:43:51;17.90;60.20
49385;DHT22;36795;45.028;38.968;2022-10-16T06:46:37;18.30;59.40
49385;DHT22;36795;45.028;38.968;2022-10-16T06:49:24;18.40;59.10
49385;DHT22;36795;45.028;38.968;2022-10-16T06:52:09;18.50;59.00
49385;DHT22;36795;45.028;38.968;2022-10-16T06:54:56;18.70;58.90
49385;DHT22;36795;45.028;38.968;2022-10-16T06:57:42;19.00;58.00
49385;DHT22;36795;45.028;38.968;2022-10-16T07:00:29;19.50;57.00
49385;DHT22;36795;45.028;38.968;2022-10-16T07:03:15;19.60;56.60
49385;DHT22;36795;45.028;38.968;2022-10-16T07:06:03;19.30;57.10
49385;DHT22;36795;45.028;38.968;2022-10-16T07:08:49;19.00;58.00
49385;DHT22;36795;45.028;38.968;2022-10-16T07:11:38;18.90;58.60
49385;DHT22;36795;45.028;38.968;2022-10-16T07:14:25;18.90;58.40
49385;DHT22;36795;45.028;38.968;2022-10-16T07:17:11;18.80;58.80
49385;DHT22;36795;45.028;38.968;2022-10-16T07:19:57;18.90;58.60
49385;DHT22;36795;45.028;38.968;2022-10-16T07:22:43;19.40;57.80
49385;DHT22;36795;45.028;38.968;2022-10-16T07:25:29;20.00;56.40
49385;DHT22;36795;45.028;38.968;2022-10-16T07:28:15;20.80;54.60
49385;DHT22;36795;45.028;38.968;2022-10-16T07:31:07;21.70;52.10
49385;DHT22;36795;45.028;38.968;2022-10-16T07:33:53;22.00;50.80
49385;DHT22;36795;45.028;38.968;2022-10-16T07:36:39;22.00;50.80
49385;DHT22;36795;45.028;38.968;2022-10-16T07:39:26;21.70;51.50
49385;DHT22;36795;45.028;38.968;2022-10-16T07:42:11;22.20;50.60
49385;DHT22;36795;45.028;38.968;2022-10-16T07:44:58;22.80;49.60
49385;DHT22;36795;45.028;38.968;2022-10-16T07:47:43;23.10;48.20
49385;DHT22;36795;45.028;38.968;2022-10-16T07:50:30;22.80;49.30
49385;DHT22;36795;45.028;38.968;2022-10-16T07:53:16;22.70;49.00
49385;DHT22;36795;45.028;38.968;2022-10-16T07:56:04;22.40;50.10
49385;DHT22;36795;45.028;38.968;2022-10-16T07:58:51;22.70;49.60
49385;DHT22;36795;45.028;38.968;2022-10-16T08:01:37;22.60;49.20
49385;DHT22;36795;45.028;38.968;2022-10-16T08:04:24;21.90;50.90
49385;DHT22;36795;45.028;38.968;2022-10-16T08:07:10;22.50;50.20
49385;DHT22;36795;45.028;38.968;2022-10-16T08:09:56;22.80;49.80
49385;DHT22;36795;45.028;38.968;2022-10-16T08:12:43;23.30;48.90
49385;DHT22;36795;45.028;38.968;2022-10-16T08:15:29;23.80;47.70
49385;DHT22;36795;45.028;38.968;2022-10-16T08:18:16;24.20;47.40
49385;DHT22;36795;45.028;38.968;2022-10-16T08:21:03;24.80;46.20
49385;DHT22;36795;45.028;38.968;2022-10-16T08:23:50;25.20;45.80
49385;DHT22;36795;45.028;38.968;2022-10-16T08:26:37;25.70;44.60
49385;DHT22;36795;45.028;38.968;2022-10-16T08:29:22;25.20;45.30
49385;DHT22;36795;45.028;38.968;2022-10-16T08:32:09;25.00;45.90
49385;DHT22;36795;45.028;38.968;2022-10-16T08:34:55;25.20;45.70
49385;DHT22;36795;45.028;38.968;2022-10-16T08:37:42;24.90;46.20
49385;DHT22;36795;45.028;38.968;2022-10-16T08:40:30;25.00;46.20
49385;DHT22;36795;45.028;38.968;2022-10-16T08:43:31;24.30;46.90
49385;DHT22;36795;45.028;38.968;2022-10-16T08:49:29;23.30;49.30
49385;DHT22;36795;45.028;38.968;2022-10-16T08:52:15;23.90;48.40
49385;DHT22;36795;45.028;38.968;2022-10-16T08:55:04;24.00;47.90
49385;DHT22;36795;45.028;38.968;2022-10-16T08:57:50;24.00;48.40
49385;DHT22;36795;45.028;38.968;2022-10-16T09:00:36;25.30;46.40
49385;DHT22;36795;45.028;38.968;2022-10-16T09:03:46;25.00;46.00
49385;DHT22;36795;45.028;38.968;2022-10-16T09:16:23;23.30;49.00
49385;DHT22;36795;45.028;38.968;2022-10-16T09:19:31;22.60;50.40
49385;DHT22;36795;45.028;38.968;2022-10-16T09:22:22;22.40;51.20
49385;DHT22;36795;45.028;38.968;2022-10-16T09:25:16;22.30;51.30
49385;DHT22;36795;45.028;38.968;2022-10-16T09:28:03;22.10;52.10
49385;DHT22;36795;45.028;38.968;2022-10-16T09:30:49;22.00;52.40
49385;DHT22;36795;45.028;38.968;2022-10-16T09:33:38;21.90;52.80
49385;DHT22;36795;45.028;38.968;2022-10-16T09:36:27;21.90;52.80
49385;DHT22;36795;45.028;38.968;2022-10-16T09:39:13;22.10;52.50
49385;DHT22;36795;45.028;38.968;2022-10-16T09:42:00;22.40;52.00
49385;DHT22;36795;45.028;38.968;2022-10-16T09:44:51;22.40;51.90
49385;DHT22;36795;45.028;38.968;2022-10-16T09:47:42;22.30;51.90
49385;DHT22;36795;45.028;38.968;2022-10-16T09:50:29;22.10;52.50
49385;DHT22;36795;45.028;38.968;2022-10-16T09:53:15;21.90;53.00
49385;DHT22;36795;45.028;38.968;2022-10-16T09:56:04;22.10;52.80
49385;DHT22;36795;45.028;38.968;2022-10-16T09:58:55;22.30;52.30
49385;DHT22;36795;45.028;38.968;2022-10-16T10:04:42;22.90;50.90
49385;DHT22;36795;45.028;38.968;2022-10-16T10:07:43;22.80;51.00
49385;DHT22;36795;45.028;38.968;2022-10-16T10:10:33;23.30;50.10
49385;DHT22;36795;45.028;38.968;2022-10-16T10:13:21;23.50;49.30
49385;DHT22;36795;45.028;38.968;2022-10-16T10:16:08;23.50;49.70
49385;DHT22;36795;45.028;38.968;2022-10-16T10:19:01;23.30;49.40
49385;DHT22;36795;45.028;38.968;2022-10-16T10:21:48;22.80;50.10
49385;DHT22;36795;45.028;38.968;2022-10-16T10:24:34;22.50;50.90
49385;DHT22;36795;45.028;38.968;2022-10-16T10:27:21;22.70;50.70
49385;DHT22;36795;45.028;38.968;2022-10-16T10:33:30;22.30;51.20
49385;DHT22;36795;45.028;38.968;2022-10-16T10:36:37;21.80;52.50
49385;DHT22;36795;45.028;38.968;2022-10-16T10:39:45;21.50;53.50
49385;DHT22;36795;45.028;38.968;2022-10-16T10:45:54;21.90;52.90
49385;DHT22;36795;45.028;38.968;2022-10-16T10:48:47;22.60;51.60
49385;DHT22;36795;45.028;38.968;2022-10-16T11:01:21;23.00;49.80
49385;DHT22;36795;45.028;38.968;2022-10-16T11:07:30;22.50;50.60
49385;DHT22;36795;45.028;38.968;2022-10-16T11:10:25;22.30;51.10
49385;DHT22;36795;45.028;38.968;2022-10-16T11:13:17;22.20;51.40
49385;DHT22;36795;45.028;38.968;2022-10-16T11:16:19;22.00;51.80
49385;DHT22;36795;45.028;38.968;2022-10-16T11:19:14;22.00;51.90
49385;DHT22;36795;45.028;38.968;2022-10-16T11:22:38;22.00;51.80
49385;DHT22;36795;45.028;38.968;2022-10-16T11:25:32;22.00;51.90
49385;DHT22;36795;45.028;38.968;2022-10-16T11:28:59;22.00;52.10
49385;DHT22;36795;45.028;38.968;2022-10-16T11:31:57;21.90;52.20
49385;DHT22;36795;45.028;38.968;2022-10-16T11:34:49;21.70;52.60
49385;DHT22;36795;45.028;38.968;2022-10-16T11:37:40;21.50;53.10
49385;DHT22;36795;45.028;38.968;2022-10-16T11:40:32;21.30;53.60
49385;DHT22;36795;45.028;38.968;2022-10-16T11:46:26;21.30;53.90
49385;DHT22;36795;45.028;38.968;2022-10-16T11:49:21;21.30;53.80
49385;DHT22;36795;45.028;38.968;2022-10-16T11:52:28;21.20;54.10
49385;DHT22;36795;45.028;38.968;2022-10-16T11:55:18;21.20;54.30
49385;DHT22;36795;45.028;38.968;2022-10-16T11:58:37;21.20;54.30
49385;DHT22;36795;45.028;38.968;2022-10-16T12:01:53;21.20;54.90
49385;DHT22;36795;45.028;38.968;2022-10-16T12:04:50;21.10;54.60
49385;DHT22;36795;45.028;38.968;2022-10-16T12:08:18;21.00;54.90
49385;DHT22;36795;45.028;38.968;2022-10-16T12:11:20;21.00;54.80
49385;DHT22;36795;45.028;38.968;2022-10-16T12:17:01;20.90;55.10
49385;DHT22;36795;45.028;38.968;2022-10-16T12:20:17;20.90;55.30
49385;DHT22;36795;45.028;38.968;2022-10-16T12:23:06;20.80;55.40
49385;DHT22;36795;45.028;38.968;2022-10-16T12:25:57;20.80;55.50
49385;DHT22;36795;45.028;38.968;2022-10-16T12:28:44;20.80;55.60
49385;DHT22;36795;45.028;38.968;2022-10-16T12:31:47;20.70;55.80
49385;DHT22;36795;45.028;38.968;2022-10-16T12:34:42;20.70;55.90
49385;DHT22;36795;45.028;38.968;2022-10-16T12:37:34;20.70;55.90
49385;DHT22;36795;45.028;38.968;2022-10-16T12:40:34;20.60;55.90
49385;DHT22;36795;45.028;38.968;2022-10-16T12:52:01;20.60;56.30
49385;DHT22;36795;45.028;38.968;2022-10-16T12:54:47;20.60;56.20
49385;DHT22;36795;45.028;38.968;2022-10-16T13:00:45;20.40;56.50
49385;DHT22;36795;45.028;38.968;2022-10-16T13:06:48;20.10;57.40
49385;DHT22;36795;45.028;38.968;2022-10-16T13:10:25;19.90;58.10
49385;DHT22;36795;45.028;38.968;2022-10-16T13:21:51;19.60;59.00
49385;DHT22;36795;45.028;38.968;2022-10-16T13:27:50;20.00;58.20
49385;DHT22;36795;45.028;38.968;2022-10-16T13:30:51;19.90;58.20
49385;DHT22;36795;45.028;38.968;2022-10-16T13:33:39;19.70;58.80
49385;DHT22;36795;45.028;38.968;2022-10-16T13:36:30;19.50;59.10
49385;DHT22;36795;45.028;38.968;2022-10-16T13:39:27;19.50;59.30
49385;DHT22;36795;45.028;38.968;2022-10-16T13:42:33;19.30;59.50
49385;DHT22;36795;45.028;38.968;2022-10-16T13:45:22;19.20;59.70
49385;DHT22;36795;45.028;38.968;2022-10-16T13:48:10;19.20;59.90
49385;DHT22;36795;45.028;38.968;2022-10-16T13:51:05;19.10;59.90
49385;DHT22;36795;45.028;38.968;2022-10-16T13:53:51;19.10;60.00
49385;DHT22;36795;45.028;38.968;2022-10-16T13:56:39;18.90;60.00
49385;DHT22;36795;45.028;38.968;2022-10-16T13:59:32;18.80;60.00
49385;DHT22;36795;45.028;38.968;2022-10-16T14:02:21;18.70;59.80
49385;DHT22;36795;45.028;38.968;2022-10-16T14:05:10;18.70;59.80
49385;DHT22;36795;45.028;38.968;2022-10-16T14:07:56;18.50;59.80
49385;DHT22;36795;45.028;38.968;2022-10-16T14:10:48;18.50;60.00
49385;DHT22;36795;45.028;38.968;2022-10-16T14:13:40;18.40;59.80
49385;DHT22;36795;45.028;38.968;2022-10-16T14:16:30;18.40;59.70
49385;DHT22;36795;45.028;38.968;2022-10-16T14:19:28;18.30;59.70
49385;DHT22;36795;45.028;38.968;2022-10-16T14:22:41;18.30;59.80
49385;DHT22;36795;45.028;38.968;2022-10-16T14:25:31;18.30;59.90
49385;DHT22;36795;45.028;38.968;2022-10-16T14:28:21;18.10;60.10
49385;DHT22;36795;45.028;38.968;2022-10-16T14:31:26;18.00;60.20
49385;DHT22;36795;45.028;38.968;2022-10-16T14:34:31;18.00;60.30
49385;DHT22;36795;45.028;38.968;2022-10-16T14:37:27;17.90;60.50
49385;DHT22;36795;45.028;38.968;2022-10-16T14:40:25;17.90;60.80
49385;DHT22;36795;45.028;38.968;2022-10-16T14:43:22;17.90;60.90
49385;DHT22;36795;45.028;38.968;2022-10-16T14:46:41;17.80;61.00
49385;DHT22;36795;45.028;38.968;2022-10-16T14:49:28;17.80;61.10
49385;DHT22;36795;45.028;38.968;2022-10-16T14:52:14;17.70;61.60
49385;DHT22;36795;45.028;38.968;2022-10-16T14:55:00;17.70;61.90
49385;DHT22;36795;45.028;38.968;2022-10-16T14:57:47;17.70;62.20
49385;DHT22;36795;45.028;38.968;2022-10-16T15:00:33;17.70;62.50
49385;DHT22;36795;45.028;38.968;2022-10-16T15:03:19;17.70;62.80
49385;DHT22;36795;45.028;38.968;2022-10-16T15:06:13;17.60;63.10
49385;DHT22;36795;45.028;38.968;2022-10-16T15:08:59;17.60;63.40
49385;DHT22;36795;45.028;38.968;2022-10-16T15:11:45;17.50;63.70
49385;DHT22;36795;45.028;38.968;2022-10-16T15:14:33;17.50;64.00
49385;DHT22;36795;45.028;38.968;2022-10-16T15:17:19;17.50;64.00
49385;DHT22;36795;45.028;38.968;2022-10-16T15:20:05;17.50;64.20
49385;DHT22;36795;45.028;38.968;2022-10-16T15:22:51;17.50;64.20
49385;DHT22;36795;45.028;38.968;2022-10-16T15:25:43;17.50;64.20
49385;DHT22;36795;45.028;38.968;2022-10-16T15:28:29;17.40;64.20
49385;DHT22;36795;45.028;38.968;2022-10-16T15:31:16;17.40;64.20
49385;DHT22;36795;45.028;38.968;2022-10-16T15:34:01;17.40;64.20
49385;DHT22;36795;45.028;38.968;2022-10-16T15:36:50;17.40;64.10
49385;DHT22;36795;45.028;38.968;2022-10-16T15:39:35;17.40;64.10
49385;DHT22;36795;45.028;38.968;2022-10-16T15:42:21;17.30;64.10
49385;DHT22;36795;45.028;38.968;2022-10-16T15:45:09;17.30;64.10
49385;DHT22;36795;45.028;38.968;2022-10-16T15:47:56;17.30;64.10
49385;DHT22;36795;45.028;38.968;2022-10-16T15:50:42;17.30;64.20
49385;DHT22;36795;45.028;38.968;2022-10-16T15:53:28;17.30;64.10
49385;DHT22;36795;45.028;38.968;2022-10-16T15:56:14;17.30;64.20
49385;DHT22;36795;45.028;38.968;2022-10-16T15:59:01;17.30;64.20
49385;DHT22;36795;45.028;38.968;2022-10-16T16:01:47;17.20;64.30
49385;DHT22;36795;45.028;38.968;2022-10-16T16:04:34;17.20;64.50
49385;DHT22;36795;45.028;38.968;2022-10-16T16:07:20;17.20;64.70
49385;DHT22;36795;45.028;38.968;2022-10-16T16:10:08;17.10;64.90
49385;DHT22;36795;45.028;38.968;2022-10-16T16:12:54;17.10;64.90
49385;DHT22;36795;45.028;38.968;2022-10-16T16:15:40;17.10;64.80
49385;DHT22;36795;45.028;38.968;2022-10-16T16:18:26;17.10;65.00
49385;DHT22;36795;45.028;38.968;2022-10-16T16:21:14;17.00;65.50
49385;DHT22;36795;45.028;38.968;2022-10-16T16:24:00;17.00;65.90
49385;DHT22;36795;45.028;38.968;2022-10-16T16:26:53;17.00;66.20
49385;DHT22;36795;45.028;38.968;2022-10-16T16:29:40;17.00;66.40
49385;DHT22;36795;45.028;38.968;2022-10-16T16:32:26;17.00;66.40
49385;DHT22;36795;45.028;38.968;2022-10-16T16:35:12;17.00;66.70
49385;DHT22;36795;45.028;38.968;2022-10-16T16:37:58;17.00;67.10
49385;DHT22;36795;45.028;38.968;2022-10-16T16:40:44;16.90;67.20
49385;DHT22;36795;45.028;38.968;2022-10-16T16:43:30;16.90;67.70
49385;DHT22;36795;45.028;38.968;2022-10-16T16:46:16;16.90;67.80
49385;DHT22;36795;45.028;38.968;2022-10-16T16:49:03;16.90;67.80
49385;DHT22;36795;45.028;38.968;2022-10-16T16:51:49;16.90;67.90
49385;DHT22;36795;45.028;38.968;2022-10-16T16:54:35;16.90;67.80
49385;DHT22;36795;45.028;38.968;2022-10-16T16:57:21;16.90;68.30
49385;DHT22;36795;45.028;38.968;2022-10-16T17:00:08;16.90;68.30
49385;DHT22;36795;45.028;38.968;2022-10-16T17:02:54;16.90;68.30
49385;DHT22;36795;45.028;38.968;2022-10-16T17:05:40;16.90;68.40
49385;DHT22;36795;45.028;38.968;2022-10-16T17:08:26;16.90;68.40
49385;DHT22;36795;45.028;38.968;2022-10-16T17:11:18;16.90;68.40
49385;DHT22;36795;45.028;38.968;2022-10-16T17:14:04;16.90;68.50
49385;DHT22;36795;45.028;38.968;2022-10-16T17:16:52;16.90;68.60
49385;DHT22;36795;45.028;38.968;2022-10-16T17:19:37;16.90;68.80
49385;DHT22;36795;45.028;38.968;2022-10-16T17:22:23;16.90;68.80
49385;DHT22;36795;45.028;38.968;2022-10-16T17:25:10;16.80;68.80
49385;DHT22;36795;45.028;38.968;2022-10-16T17:27:56;16.80;68.90
49385;DHT22;36795;45.028;38.968;2022-10-16T17:30:42;16.80;68.90
49385;DHT22;36795;45.028;38.968;2022-10-16T17:33:29;16.80;69.10
49385;DHT22;36795;45.028;38.968;2022-10-16T17:36:15;16.80;69.30
49385;DHT22;36795;45.028;38.968;2022-10-16T17:39:04;16.80;69.40
49385;DHT22;36795;45.028;38.968;2022-10-16T17:41:51;16.80;69.50
49385;DHT22;36795;45.028;38.968;2022-10-16T17:44:37;16.70;69.60
49385;DHT22;36795;45.028;38.968;2022-10-16T17:47:23;16.70;69.60
49385;DHT22;36795;45.028;38.968;2022-10-16T17:50:09;16.70;69.80
49385;DHT22;36795;45.028;38.968;2022-10-16T17:52:56;16.70;69.70
49385;DHT22;36795;45.028;38.968;2022-10-16T17:55:42;16.70;69.60
49385;DHT22;36795;45.028;38.968;2022-10-16T17:58:28;16.70;69.60
49385;DHT22;36795;45.028;38.968;2022-10-16T18:01:20;16.70;69.70
49385;DHT22;36795;45.028;38.968;2022-10-16T18:04:09;16.70;69.70
49385;DHT22;36795;45.028;38.968;2022-10-16T18:06:56;16.70;69.70
49385;DHT22;36795;45.028;38.968;2022-10-16T18:09:45;16.70;69.60
49385;DHT22;36795;45.028;38.968;2022-10-16T18:12:30;16.70;69.50
49385;DHT22;36795;45.028;38.968;2022-10-16T18:15:17;16.60;69.40
49385;DHT22;36795;45.028;38.968;2022-10-16T18:18:03;16.60;69.50
49385;DHT22;36795;45.028;38.968;2022-10-16T18:20:57;16.60;69.50
49385;DHT22;36795;45.028;38.968;2022-10-16T18:23:43;16.60;69.70
49385;DHT22;36795;45.028;38.968;2022-10-16T18:26:31;16.60;69.80
49385;DHT22;36795;45.028;38.968;2022-10-16T18:29:17;16.50;69.70
49385;DHT22;36795;45.028;38.968;2022-10-16T18:32:04;16.60;69.60
49385;DHT22;36795;45.028;38.968;2022-10-16T18:34:49;16.60;69.50
49385;DHT22;36795;45.028;38.968;2022-10-16T18:37:36;16.60;69.60
49385;DHT22;36795;45.028;38.968;2022-10-16T18:40:22;16.50;69.60
49385;DHT22;36795;45.028;38.968;2022-10-16T18:43:08;16.50;69.60
49385;DHT22;36795;45.028;38.968;2022-10-16T18:45:56;16.50;69.60
49385;DHT22;36795;45.028;38.968;2022-10-16T18:48:43;16.50;69.50